Latest Weather Observations for Mount Boyce

IDN60901

Issued at 7:01 am EDT Saturday 21 January 2017 (issued every 10 minutes, with the page automatically refreshed every 10 minutes)

About weather observations | Map of Sydney area stations | Latest observations for Sydney area | Other Formats
Station Details ID: 063292 Name: MOUNT BOYCE AWS Lat: -33.62 Lon: 150.27 Height: 1080.0 m
Data from the previous 72 hours. | See also: Recent months at Mount Boyce
Date/Time
EDT
Temp
°C
App
Temp
°C
Dew
Point
°C
Rel
Hum
%
Delta-T
°C
Wind Press
QNH
hPa
Press
MSL
hPa
Rain since
9am
mm
Dir  Spd
km/h
Gust
km/h
Spd
kts
Gust
kts
21/06:30am 14.7 16.0 14.2 97 0.3 CALM 0 0 0 0 - - 13.0
21/06:00am 14.7 15.7 14.4 98 0.2 ENE 2 9 1 5 - - 13.0
21/05:30am 14.7 15.0 14.4 98 0.2 NE 6 9 3 5 - - 13.0
21/05:00am 14.8 16.2 14.3 97 0.3 CALM 0 0 0 0 - - 13.0
21/04:30am 14.9 15.9 14.4 97 0.3 NE 2 7 1 4 - - 13.0
21/04:00am 14.7 15.7 14.4 98 0.2 NE 2 9 1 5 - - 13.0
21/03:30am 14.6 14.6 14.1 97 0.3 NE 7 11 4 6 - - 13.0
21/03:12am 14.5 14.4 13.9 96 0.4 NE 7 9 4 5 - - 13.0
21/03:10am 14.4 14.2 13.6 95 0.5 NE 7 9 4 5 - - 13.0
21/03:00am 14.4 14.1 13.3 93 0.6 NE 7 9 4 5 - - 13.0
21/02:30am 15.1 15.3 13.0 87 1.2 W 4 7 2 4 - - 13.0
21/02:00am 15.5 14.4 13.2 86 1.3 WSW 11 17 6 9 - - 13.0
21/01:30am 15.4 13.9 13.2 87 1.3 WSW 13 19 7 10 - - 13.0
21/01:00am 15.6 15.3 13.4 87 1.3 WSW 7 13 4 7 - - 13.0
21/12:30am 15.4 14.4 13.4 88 1.2 WSW 11 17 6 9 - - 13.0
21/12:00am 15.4 14.1 13.6 89 1.1 WSW 13 19 7 10 - - 13.0
 
Date/Time
EDT
Temp
°C
App
Temp
°C
Dew
Point
°C
Rel
Hum
%
Delta-T
°C
Wind Press
QNH
hPa
Press
MSL
hPa
Rain since
9am
mm
Dir  Spd
km/h
Gust
km/h
Spd
kts
Gust
kts
20/11:30pm 16.0 13.9 13.7 86 1.4 WSW 17 26 9 14 - - 13.0
20/11:00pm 16.2 13.6 13.9 86 1.4 WSW 20 33 11 18 - - 13.0
20/10:30pm 16.5 12.5 14.0 85 1.5 WSW 28 37 15 20 - - 13.0
20/10:28pm 16.6 12.6 14.1 85 1.5 WSW 28 46 15 25 - - 13.0
20/10:00pm 17.2 13.2 14.1 82 1.9 WSW 28 44 15 24 - - 13.0
20/09:30pm 17.6 13.7 14.5 82 1.9 WSW 28 41 15 22 - - 13.0
20/09:08pm 18.2 14.2 15.3 83 1.8 WSW 30 46 16 25 - - 13.0
20/09:00pm 18.2 14.0 15.6 85 1.6 WSW 32 46 17 25 - - 13.0
20/08:30pm 19.0 17.1 17.7 92 0.8 WSW 24 37 13 20 - - 13.0
20/08:00pm 19.5 17.3 18.8 96 0.5 WSW 28 50 15 27 - - 13.0
20/07:56pm 19.5 17.5 19.2 98 0.2 WSW 28 50 15 27 - - 13.0
20/07:55pm 19.5 17.9 19.2 98 0.2 WSW 26 50 14 27 - - 13.0
20/07:30pm 19.9 18.2 19.7 99 0.1 WSW 28 44 15 24 - - 13.0
20/07:00pm 20.3 18.0 20.1 99 0.1 WSW 32 50 17 27 - - 12.8
20/06:47pm 20.3 18.7 20.0 98 0.2 W 28 48 15 26 - - 12.8
20/06:30pm 20.7 20.4 19.5 93 0.8 W 20 35 11 19 - - 10.6
20/06:28pm 20.8 20.5 19.5 92 0.9 W 20 35 11 19 - - 10.6
20/06:01pm 21.5 20.0 19.4 88 1.4 W 26 44 14 24 - - 10.6
20/06:00pm 21.5 20.3 19.2 87 1.5 W 24 44 13 24 - - 10.6
20/05:50pm 21.8 21.0 20.1 90 1.1 W 24 41 13 22 - - 10.6
20/05:40pm 21.5 19.9 20.0 91 1.0 W 28 56 15 30 - - 10.6
20/05:35pm 21.8 21.0 20.8 94 0.7 WSW 26 56 14 30 - - 10.6
20/05:30pm 21.7 20.6 21.0 96 0.5 W 28 46 15 25 - - 10.4
20/05:15pm 21.2 17.1 18.2 83 2.0 W 37 69 20 37 - - 10.2
20/05:00pm 23.3 19.8 18.0 72 3.5 W 33 56 18 30 - - 10.2
20/04:30pm 23.3 18.1 18.4 74 3.2 W 43 69 23 37 - - 10.2
20/04:00pm 23.2 18.8 18.5 75 3.1 W 39 72 21 39 - - 10.2
20/03:37pm 23.8 18.6 18.7 73 3.4 W 44 74 24 40 - - 10.0
20/03:36pm 23.9 18.5 18.3 71 3.7 W 44 74 24 40 - - 10.0
20/03:30pm 23.9 20.0 19.6 77 2.9 W 39 65 21 35 - - 10.0
20/03:18pm 23.3 19.8 19.5 79 2.5 W 37 61 20 33 - - 10.0
20/03:00pm 22.2 19.1 20.5 90 1.1 W 37 57 20 31 - - 10.0
20/02:32pm 20.4 15.8 19.7 96 0.5 W 43 69 23 37 - - 10.0
20/02:30pm 20.3 15.8 19.8 97 0.3 W 43 69 23 37 - - 10.0
20/02:18pm 20.0 16.5 19.5 97 0.3 W 37 56 20 30 - - 10.0
20/02:10pm 20.1 17.3 19.1 94 0.7 W 32 56 17 30 - - 9.8
20/02:09pm 20.2 17.4 19.0 93 0.8 W 32 48 17 26 - - 9.8
20/02:07pm 20.4 17.4 19.1 92 0.9 W 33 56 18 30 - - 9.4
20/02:00pm 21.1 16.2 19.0 88 1.4 W 43 72 23 39 - - 9.0
20/01:30pm 20.2 17.1 19.7 97 0.3 W 35 61 19 33 - - 9.0
20/01:17pm 19.8 17.0 19.5 98 0.2 W 33 57 18 31 - - 9.0
20/01:00pm 19.7 17.5 19.5 99 0.1 W 30 48 16 26 - - 9.0
20/12:33pm 19.6 17.0 19.4 99 0.1 W 32 50 17 27 - - 9.0
20/12:30pm 19.5 16.6 19.3 99 0.1 W 33 50 18 27 - - 9.0
20/12:17pm 19.4 17.4 19.2 99 0.1 W 28 50 15 27 - - 8.6
20/12:00pm 19.3 18.4 19.1 99 0.1 WNW 22 43 12 23 - - 8.0
20/11:30am 19.2 19.5 18.7 97 0.3 WNW 15 22 8 12 - - 4.8
20/11:00am 19.2 19.0 18.4 95 0.5 WNW 17 28 9 15 - - 1.0
20/10:52am 19.3 17.6 18.1 93 0.8 WNW 24 48 13 26 - - 0.8
20/10:44am 19.7 16.8 18.0 90 1.1 WNW 30 48 16 26 - - 0.2
20/10:36am 20.3 17.7 17.9 86 1.6 WNW 28 46 15 25 - - 0.0
20/10:30am 20.5 18.3 17.9 85 1.7 WNW 26 41 14 22 - - 0.0
20/10:00am 20.8 18.2 17.8 83 1.9 WNW 28 44 15 24 - - 0.0
20/09:30am 21.1 20.2 18.3 84 1.8 NW 20 41 11 22 - - 0.0
20/09:07am 19.9 17.3 17.7 87 1.4 NW 28 46 15 25 - - 0.0
20/09:00am 19.8 18.0 17.8 88 1.3 NW 24 46 13 25 - - 1.0
20/08:30am 19.6 18.6 17.9 90 1.1 NW 20 35 11 19 - - 1.0
20/08:00am 18.8 18.3 17.8 94 0.6 WNW 17 35 9 19 - - 1.0
20/07:30am 17.7 17.1 17.5 99 0.1 NW 17 32 9 17 - - 1.0
20/07:08am 17.0 15.7 16.8 99 0.1 WNW 19 35 10 19 - - 1.0
20/07:00am 16.9 15.4 16.7 99 0.1 WNW 20 43 11 23 - - 1.0
20/06:37am 15.8 14.8 15.6 99 0.1 WNW 15 26 8 14 - - 1.0
20/06:30am 15.3 14.9 15.1 99 0.1 WNW 11 20 6 11 - - 1.0
20/06:00am 13.8 12.9 13.6 99 0.1 WNW 11 19 6 10 - - 1.0
20/05:57am 14.0 13.1 13.8 99 0.1 WNW 11 19 6 10 - - 1.0
20/05:56am 13.9 13.0 13.7 99 0.1 WNW 11 19 6 10 - - 1.0
20/05:30am 13.5 13.4 13.3 99 0.1 NW 6 11 3 6 - - 1.0
20/05:00am 13.5 12.8 13.3 99 0.1 NE 9 15 5 8 - - 1.0
20/04:30am 13.5 13.2 13.3 99 0.1 NE 7 13 4 7 - - 1.0
20/04:00am 13.4 13.1 13.2 99 0.1 NE 7 13 4 7 - - 1.0
20/03:30am 13.4 13.1 13.2 99 0.1 NE 7 13 4 7 - - 1.0
20/03:00am 13.4 11.9 13.2 99 0.1 NE 13 24 7 13 - - 1.0
20/02:30am 13.4 12.3 13.2 99 0.1 NE 11 20 6 11 - - 1.0
20/02:00am 13.4 12.3 13.2 99 0.1 NE 11 19 6 10 - - 1.0
20/01:30am 13.3 12.2 13.1 99 0.1 ENE 11 19 6 10 - - 0.8
20/01:00am 13.4 12.7 13.2 99 0.1 ENE 9 15 5 8 - - 0.8
20/12:30am 13.5 12.8 13.3 99 0.1 ENE 9 15 5 8 - - 0.8
20/12:00am 13.3 12.2 13.0 98 0.2 ENE 11 24 6 13 - - 0.8
 
Date/Time
EDT
Temp
°C
App
Temp
°C
Dew
Point
°C
Rel
Hum
%
Delta-T
°C
Wind Press
QNH
hPa
Press
MSL
hPa
Rain since
9am
mm
Dir  Spd
km/h
Gust
km/h
Spd
kts
Gust
kts
19/11:30pm 13.4 12.3 13.1 98 0.2 ENE 11 20 6 11 - - 0.8
19/11:00pm 13.4 11.9 13.1 98 0.2 ENE 13 24 7 13 - - 0.8
19/10:30pm 13.6 12.6 13.3 98 0.2 ENE 11 19 6 10 - - 0.4
19/10:00pm 13.6 12.6 13.3 98 0.2 ENE 11 22 6 12 - - 0.4
19/09:30pm 13.7 12.7 13.4 98 0.2 ENE 11 20 6 11 - - 0.4
19/09:00pm 13.8 12.4 13.5 98 0.2 ENE 13 22 7 12 - - 0.2
19/08:30pm 13.8 12.8 13.3 97 0.3 ENE 11 20 6 11 - - 0.2
19/08:00pm 14.0 13.4 13.4 96 0.4 ENE 9 20 5 11 - - 0.0
19/07:30pm 14.3 13.3 13.5 95 0.5 ENE 11 17 6 9 - - 0.0
19/07:00pm 14.9 14.5 14.1 95 0.5 ENE 9 15 5 8 - - 0.0
19/06:30pm 15.1 15.2 14.5 96 0.4 ENE 7 13 4 7 - - 0.0
19/06:00pm 14.9 14.4 13.8 93 0.7 ENE 9 17 5 9 - - 0.0
19/05:30pm 14.8 14.5 13.2 90 0.9 ENE 7 13 4 7 - - 0.0
19/05:07pm 15.6 14.9 13.3 86 1.4 ENE 9 17 5 9 - - 0.0
19/05:00pm 16.0 15.5 13.7 86 1.4 ENE 9 17 5 9 - - 0.0
19/04:57pm 16.0 15.9 13.8 87 1.3 ENE 7 19 4 10 - - 0.0
19/04:34pm 15.5 14.7 13.0 85 1.5 ENE 9 13 5 7 - - 0.0
19/04:30pm 16.0 15.4 13.5 85 1.5 ENE 9 13 5 7 - - 0.0
19/04:28pm 16.0 15.4 13.5 85 1.5 ENE 9 19 5 10 - - 0.0
19/04:00pm 15.3 14.3 13.3 88 1.2 ENE 11 20 6 11 - - 0.0
19/03:30pm 15.9 15.4 13.7 87 1.3 ENE 9 17 5 9 - - 0.0
19/03:00pm 15.5 15.4 13.9 90 1.0 ENE 7 13 4 7 - - 0.0
19/02:30pm 15.4 15.2 13.6 89 1.1 ENE 7 17 4 9 - - 0.0
19/02:00pm 14.9 14.6 13.3 90 0.9 ENE 7 13 4 7 - - 0.0
19/01:30pm 15.0 15.0 13.7 92 0.8 E 6 15 3 8 - - 0.0
19/01:00pm 14.5 13.6 12.7 89 1.0 ENE 9 17 5 9 - - 0.0
19/12:30pm 14.5 13.5 12.4 87 1.2 ENE 9 17 5 9 - - 0.0
19/12:20pm 15.1 14.6 12.6 85 1.4 ENE 7 13 4 7 - - 0.0
19/12:12pm 15.1 14.1 12.4 84 1.6 ENE 9 19 5 10 - - 0.0
19/12:00pm 15.2 14.8 13.1 87 1.2 ENE 7 17 4 9 - - 0.0
19/11:33am 15.2 14.3 12.7 85 1.5 ENE 9 17 5 9 - - 0.0
19/11:30am 15.1 14.6 12.6 85 1.4 ENE 7 17 4 9 - - 0.0
19/11:00am 14.8 13.7 12.1 84 1.5 ENE 9 17 5 9 - - 0.0
19/10:30am 14.7 13.7 12.4 86 1.3 ENE 9 17 5 9 - - 0.0
19/10:00am 13.8 12.7 11.8 88 1.1 ENE 9 17 5 9 - - 0.0
19/09:30am 13.6 12.5 11.8 89 1.0 ENE 9 20 5 11 - - 0.0
19/09:00am 13.2 11.9 12.4 95 0.5 ENE 11 17 6 9 - - 2.4
19/08:30am 12.0 10.6 10.9 93 0.6 ENE 9 17 5 9 - - 2.4
19/08:17am 12.2 11.0 11.6 96 0.3 ENE 9 17 5 9 - - 2.4
19/08:12am 12.3 11.1 11.7 96 0.3 ENE 9 17 5 9 - - 2.4
19/08:00am 11.9 10.6 11.4 97 0.3 ENE 9 17 5 9 - - 2.4
19/07:51am 12.0 10.8 11.5 97 0.3 ENE 9 17 5 9 - - 2.4
19/07:30am 11.8 10.6 11.5 98 0.2 ENE 9 13 5 7 - - 2.4
19/07:00am 11.2 9.8 10.9 98 0.2 ENE 9 15 5 8 - - 2.4
19/06:30am 11.0 9.5 10.7 98 0.2 ENE 9 17 5 9 - - 2.4
19/06:00am 11.0 9.2 10.7 98 0.2 ENE 11 17 6 9 - - 2.4
19/05:30am 11.3 9.9 11.0 98 0.2 ENE 9 20 5 11 - - 2.2
19/05:00am 11.4 10.1 11.1 98 0.2 ENE 9 20 5 11 - - 2.2
19/04:30am 11.3 9.5 11.0 98 0.2 ENE 11 20 6 11 - - 2.2
19/04:00am 11.6 9.9 11.1 97 0.3 ENE 11 20 6 11 - - 2.0
19/03:30am 11.9 10.3 11.4 97 0.3 E 11 19 6 10 - - 1.8
19/03:00am 12.4 11.3 12.1 98 0.2 E 9 17 5 9 - - 1.6
19/02:30am 12.7 11.7 12.4 98 0.2 E 9 26 5 14 - - 1.4
19/02:00am 12.8 11.1 12.3 97 0.3 E 13 24 7 13 - - 1.2
19/01:30am 13.6 12.5 13.1 97 0.3 E 11 24 6 13 - - 0.8
19/01:00am 14.0 13.4 13.5 97 0.3 E 9 20 5 11 - - 0.6
19/12:30am 14.3 13.4 13.8 97 0.3 ENE 11 24 6 13 - - 0.2
19/12:00am 14.8 14.5 14.3 97 0.3 E 9 19 5 10 - - 0.2
 
Date/Time
EDT
Temp
°C
App
Temp
°C
Dew
Point
°C
Rel
Hum
%
Delta-T
°C
Wind Press
QNH
hPa
Press
MSL
hPa
Rain since
9am
mm
Dir  Spd
km/h
Gust
km/h
Spd
kts
Gust
kts
18/11:30pm 14.7 13.9 14.1 96 0.4 E 11 19 6 10 - - 0.0
18/11:00pm 14.8 14.0 14.0 95 0.5 ENE 11 20 6 11 - - 0.0
18/10:30pm 14.9 14.1 13.9 94 0.6 ENE 11 19 6 10 - - 0.0
18/10:00pm 15.1 14.3 14.1 94 0.6 ENE 11 20 6 11 - - 0.0
18/09:30pm 15.6 14.6 14.5 93 0.7 ENE 13 20 7 11 - - 0.0
18/09:00pm 16.0 15.3 14.4 90 1.0 ENE 11 24 6 13 - - 0.0
18/08:30pm 16.8 15.9 14.8 88 1.2 ENE 13 22 7 12 - - 0.0
18/08:00pm 17.8 16.8 14.7 82 1.9 ENE 13 24 7 13 - - 0.0
18/07:49pm 18.2 16.9 14.7 80 2.1 ENE 15 24 8 13 - - 0.0
18/07:30pm 19.8 18.5 14.8 73 3.1 ENE 15 24 8 13 - - 0.0
18/07:01pm 22.1 21.1 15.5 66 4.1 ENE 15 24 8 13 - - 0.0
18/07:00pm 22.3 21.3 15.6 66 4.2 ENE 15 24 8 13 - - 0.0
18/06:30pm 23.5 21.6 15.3 60 5.1 ENE 19 32 10 17 - - 0.0
18/06:00pm 25.0 23.4 15.0 53 6.3 ENE 17 28 9 15 - - 0.0
18/05:30pm 25.2 23.5 14.6 51 6.6 ENE 17 32 9 17 - - 0.0
18/05:00pm 26.1 24.5 13.9 47 7.6 E 15 35 8 19 - - 0.0
18/04:50pm 28.6 26.9 13.7 40 9.3 SSE 15 30 8 16 - - 0.0
18/04:30pm 33.6 26.3 4.3 16 16.1 WSW 32 52 17 28 - - 0.0
18/04:00pm 33.8 25.4 3.6 15 16.5 WSW 37 63 20 34 - - 0.0
18/03:30pm 32.8 24.8 3.7 16 15.8 WSW 35 63 19 34 - - 0.0
18/03:00pm 34.2 26.2 3.9 15 16.6 W 35 72 19 39 - - 0.0
18/02:30pm 33.3 24.8 3.2 15 16.3 WSW 37 61 20 33 - - 0.0
18/02:00pm 33.9 26.8 6.3 18 15.7 W 33 52 18 28 - - 0.0
18/01:30pm 31.9 25.8 10.6 27 12.8 W 33 63 18 34 - - 0.0
18/01:00pm 31.6 25.5 11.9 30 12.1 W 35 56 19 30 - - 0.0
18/12:30pm 30.9 25.1 12.8 33 11.2 W 35 57 19 31 - - 0.0
18/12:00pm 30.7 26.7 15.2 39 9.9 W 30 52 16 28 - - 0.0
18/11:30am 29.4 23.8 14.4 40 9.5 W 37 67 20 36 - - 0.0
18/11:21am 29.2 24.3 13.8 39 9.6 W 32 67 17 36 - - 0.0
18/11:00am 29.3 25.6 15.1 42 9.1 W 28 46 15 25 - - 0.0
18/10:30am 28.4 23.7 14.3 42 8.9 W 32 56 17 30 - - 0.0
18/10:02am 27.8 23.8 14.1 43 8.6 W 28 46 15 25 - - 0.0
18/10:00am 28.0 24.1 14.3 43 8.6 W 28 41 15 22 - - 0.0
18/09:55am 27.7 23.7 14.0 43 8.6 W 28 46 15 25 - - 0.0
18/09:30am 27.4 23.9 14.4 45 8.2 W 26 46 14 25 - - 0.0
18/09:22am 27.0 23.1 14.4 46 7.9 W 28 46 15 25 - - 0.0
18/09:00am 26.6 22.7 14.4 47 7.6 W 28 43 15 23 - - 0.0
18/08:48am 26.3 22.3 14.1 47 7.6 W 28 46 15 25 - - 0.0
18/08:30am 25.9 22.8 14.4 49 7.2 W 24 37 13 20 - - 0.0
18/08:00am 25.4 22.1 13.9 49 7.1 W 24 37 13 20 - - 0.0
18/07:30am 25.2 21.7 13.4 48 7.2 W 24 44 13 24 - - 0.0

Latest Capital City Observations: Canberra | Sydney | Melbourne | Brisbane | Adelaide | Perth | Hobart | Darwin

Other Formats:

Comma delimited format used in spreadsheet applications
http://www.bom.gov.au/fwo/IDN60901/IDN60901.94743.axf

JavaScript Object Notation format (JSON) in row-major order
http://www.bom.gov.au/fwo/IDN60901/IDN60901.94743.json